Time;durP1;ratioP1;P1;durP2;ratioP2;P2;SDS_P1;SDS_P2;PMS_P1;PMS_P2;Temp;Humidity;BMP_temperature;BMP_pressure;BME280_temperature;BME280_humidity;BME280_pressure;Samples;Min_cycle;Max_cycle;Signal;HPM_P1;HPM_P2
2022/11/15 00:00:41;;;;;;;25.88;15.57;;;8.80;99.90;;;;;;5133242;27;20438;-85
2022/11/15 00:03:06;;;;;;;27.50;16.63;;;8.00;99.90;;;;;;5119031;27;20085;-86
2022/11/15 00:05:35;;;;;;;24.05;16.30;;;8.00;99.90;;;;;;5149937;27;20053;-85
2022/11/15 00:08:01;;;;;;;23.88;15.32;;;8.00;99.90;;;;;;5136310;27;20077;-86
2022/11/15 00:10:27;;;;;;;29.73;15.98;;;8.60;99.90;;;;;;5170069;27;20508;-86
2022/11/15 00:12:53;;;;;;;27.05;16.80;;;8.00;99.90;;;;;;5157826;27;20038;-86
2022/11/15 00:15:18;;;;;;;27.00;16.92;;;9.00;99.90;;;;;;5126600;27;20478;-86
2022/11/15 00:17:44;;;;;;;24.20;14.70;;;7.90;99.90;;;;;;5119750;27;20049;-85
2022/11/15 00:20:11;;;;;;;25.05;16.27;;;7.90;99.90;;;;;;5153871;27;20054;-86
2022/11/15 00:22:37;;;;;;;21.80;14.68;;;7.80;99.90;;;;;;5116241;27;20129;-86
2022/11/15 00:25:03;;;;;;;21.58;13.88;;;8.80;99.90;;;;;;5152844;27;20504;-86
2022/11/15 00:27:29;;;;;;;24.85;15.32;;;7.60;99.90;;;;;;5150323;27;20034;-86
2022/11/15 00:29:55;;;;;;;26.70;15.18;;;8.40;99.90;;;;;;5170708;27;20060;-85
2022/11/15 00:32:20;;;;;;;24.33;15.35;;;8.00;99.90;;;;;;5152046;27;20149;-86
2022/11/15 00:34:46;;;;;;;22.88;15.60;;;7.40;99.90;;;;;;5133058;27;20085;-85
2022/11/15 00:37:12;;;;;;;22.02;15.57;;;7.30;99.90;;;;;;5152624;27;20038;-85
2022/11/15 00:39:37;;;;;;;23.65;15.95;;;7.50;99.90;;;;;;5149063;27;20397;-85
2022/11/15 00:42:03;;;;;;;23.92;15.75;;;7.40;99.90;;;;;;5153130;27;20469;-85
2022/11/15 00:44:29;;;;;;;26.17;16.48;;;7.10;99.90;;;;;;5132768;27;20479;-85
2022/11/15 00:46:54;;;;;;;27.38;16.17;;;7.10;99.90;;;;;;5133890;27;20042;-85
2022/11/15 00:49:20;;;;;;;23.38;16.20;;;7.80;99.90;;;;;;5134109;27;20230;-85
2022/11/15 00:51:45;;;;;;;23.95;16.60;;;8.00;99.90;;;;;;5133226;27;20042;-85
2022/11/15 00:54:11;;;;;;;25.30;15.52;;;7.10;99.90;;;;;;5151958;27;20046;-84
2022/11/15 00:56:37;;;;;;;23.13;15.77;;;7.10;99.90;;;;;;5132668;27;20038;-85
2022/11/15 00:59:02;;;;;;;23.92;16.63;;;7.80;99.90;;;;;;5152692;27;20074;-86
2022/11/15 01:01:28;;;;;;;25.60;16.98;;;7.20;99.90;;;;;;5149576;27;20453;-85
2022/11/15 01:03:54;;;;;;;28.88;16.60;;;7.70;99.90;;;;;;5170604;27;20130;-85
2022/11/15 01:06:19;;;;;;;24.42;16.77;;;7.20;99.90;;;;;;5169717;27;20042;-85
2022/11/15 01:08:45;;;;;;;25.77;16.90;;;7.90;99.90;;;;;;5133604;27;20400;-85
2022/11/15 01:11:12;;;;;;;23.35;17.10;;;7.30;99.90;;;;;;5134214;27;20086;-85
2022/11/15 01:13:39;;;;;;;25.15;15.85;;;7.30;99.90;;;;;;5167954;27;20481;-85
2022/11/15 01:16:15;;;;;;;27.88;16.42;;;7.60;99.90;;;;;;5171149;27;20038;-85
2022/11/15 01:18:40;;;;;;;25.05;16.20;;;7.20;99.90;;;;;;5168154;27;20051;-85
2022/11/15 01:21:11;;;;;;;25.58;15.77;;;8.00;99.90;;;;;;5170613;27;20441;-85
2022/11/15 01:23:38;;;;;;;23.30;15.82;;;7.60;99.90;;;;;;5150955;27;20042;-85
2022/11/15 01:26:05;;;;;;;23.58;14.90;;;8.30;99.90;;;;;;5169539;27;20078;-85
2022/11/15 01:28:33;;;;;;;24.05;16.10;;;8.10;99.90;;;;;;5134752;27;20446;-85
2022/11/15 01:31:01;;;;;;;24.08;15.65;;;7.20;99.90;;;;;;5148823;27;20042;-85
2022/11/15 01:33:27;;;;;;;24.23;15.65;;;7.20;99.90;;;;;;5152758;27;20436;-86
2022/11/15 01:35:53;;;;;;;21.38;14.88;;;7.20;99.90;;;;;;5132095;27;20046;-85
2022/11/15 01:38:18;;;;;;;26.13;15.98;;;7.20;99.90;;;;;;5134030;27;20090;-86
2022/11/15 01:40:44;;;;;;;28.58;16.38;;;7.90;99.90;;;;;;5150558;27;20038;-85
2022/11/15 01:43:29;;;;;;;23.60;16.00;;;6.80;99.90;;;;;;5149894;27;20170;-85
2022/11/15 01:46:13;;;;;;;24.25;16.75;;;7.30;99.90;;;;;;5151998;27;20073;-86
2022/11/15 01:48:39;;;;;;;26.73;17.15;;;7.30;99.90;;;;;;5148847;27;20046;-85
2022/11/15 01:51:09;;;;;;;29.25;16.23;;;7.50;99.90;;;;;;5151420;27;20053;-85
2022/11/15 01:53:39;;;;;;;28.67;17.25;;;7.40;99.90;;;;;;5168780;27;20425;-86
2022/11/15 01:56:09;;;;;;;26.77;16.95;;;7.40;99.90;;;;;;5149945;27;20437;-85
2022/11/15 01:58:35;;;;;;;25.95;16.83;;;7.50;99.90;;;;;;5150040;27;20050;-86
2022/11/15 02:01:01;;;;;;;28.05;16.70;;;7.50;99.90;;;;;;5113659;27;20102;-86
2022/11/15 02:03:35;;;;;;;25.95;15.43;;;7.50;99.90;;;;;;5134400;27;20054;-85
2022/11/15 02:06:03;;;;;;;24.63;16.80;;;7.60;99.90;;;;;;5149068;27;20110;-85
2022/11/15 02:08:29;;;;;;;27.88;16.10;;;7.60;99.90;;;;;;5150311;27;20125;-86
2022/11/15 02:10:54;;;;;;;25.30;15.57;;;8.10;99.90;;;;;;5132564;27;20090;-86
2022/11/15 02:13:20;;;;;;;26.55;16.23;;;7.60;99.90;;;;;;5167720;27;20081;-87
2022/11/15 02:16:19;;;;;;;26.67;16.73;;;8.10;99.90;;;;;;5133552;27;20103;-86
2022/11/15 02:19:07;;;;;;;22.98;14.35;;;7.60;99.90;;;;;;5167400;27;20058;-86
2022/11/15 02:22:03;;;;;;;21.10;13.70;;;7.60;99.90;;;;;;5167344;27;20052;-83
2022/11/15 02:24:40;;;;;;;22.38;14.15;;;7.70;99.90;;;;;;5170564;27;20092;-86
2022/11/15 02:27:24;;;;;;;20.10;13.52;;;7.60;99.90;;;;;;5147767;27;20034;-86
2022/11/15 02:29:59;;;;;;;23.60;14.00;;;8.00;99.90;;;;;;5149851;27;20493;-86
2022/11/15 02:32:57;;;;;;;25.13;14.70;;;7.60;99.90;;;;;;5149184;27;20046;-86
2022/11/15 02:35:50;;;;;;;20.95;14.00;;;7.60;99.90;;;;;;5147243;27;20046;-86
2022/11/15 02:38:36;;;;;;;23.70;14.07;;;7.60;99.90;;;;;;5149910;27;20103;-86
2022/11/15 02:41:06;;;;;;;26.60;14.18;;;8.30;99.90;;;;;;5148879;27;20089;-86
2022/11/15 02:43:56;;;;;;;25.08;15.27;;;7.60;99.90;;;;;;5166389;27;20034;-86
2022/11/15 02:49:28;;;;;;;30.27;16.00;;;7.60;99.90;;;;;;5167815;27;20403;-86
2022/11/15 02:51:55;;;;;;;30.35;15.77;;;7.70;99.90;;;;;;5148479;27;20476;-86
2022/11/15 02:54:39;;;;;;;25.42;14.93;;;8.30;99.90;;;;;;5150002;27;20051;-86
2022/11/15 02:57:14;;;;;;;29.42;16.08;;;8.40;99.90;;;;;;5130276;27;20046;-86
2022/11/15 03:00:03;;;;;;;27.50;16.10;;;8.10;99.90;;;;;;5168330;27;20412;-86
2022/11/15 03:03:00;;;;;;;27.58;16.77;;;7.60;99.90;;;;;;5149827;27;20569;-86
2022/11/15 03:05:51;;;;;;;30.80;16.13;;;7.60;99.90;;;;;;5164992;27;20082;-86
2022/11/15 03:08:37;;;;;;;31.00;16.48;;;8.10;99.90;;;;;;5149318;27;20050;-85
2022/11/15 03:11:15;;;;;;;29.17;15.57;;;7.60;99.90;;;;;;5149021;27;20030;-86
2022/11/15 03:13:56;;;;;;;34.17;17.02;;;7.70;99.90;;;;;;5165772;27;20073;-85
2022/11/15 03:16:41;;;;;;;28.42;15.80;;;7.70;99.90;;;;;;5150540;27;20046;-85
2022/11/15 03:19:33;;;;;;;35.88;17.90;;;7.70;99.90;;;;;;5166914;27;20358;-86
2022/11/15 03:22:05;;;;;;;30.48;16.33;;;7.70;99.90;;;;;;5145282;27;20437;-86
2022/11/15 03:24:35;;;;;;;32.55;18.75;;;7.70;99.90;;;;;;5148179;27;20039;-85
2022/11/15 03:27:02;;;;;;;32.70;17.33;;;8.40;99.90;;;;;;5126407;27;20110;-86
2022/11/15 03:29:34;;;;;;;32.67;16.90;;;7.70;99.90;;;;;;5129148;27;20099;-86
2022/11/15 03:32:14;;;;;;;34.10;18.20;;;7.70;99.90;;;;;;5146433;27;20029;-86
2022/11/15 03:34:53;;;;;;;32.38;17.77;;;7.70;99.90;;;;;;5146130;27;20043;-86
2022/11/15 03:37:24;;;;;;;31.85;16.75;;;7.70;99.90;;;;;;5112156;27;20046;-87
2022/11/15 03:39:50;;;;;;;34.40;16.65;;;7.70;99.90;;;;;;5126028;27;20070;-86
2022/11/15 03:42:18;;;;;;;32.92;18.50;;;8.20;99.90;;;;;;5112112;27;20045;-86
2022/11/15 03:45:08;;;;;;;30.85;16.58;;;8.80;99.90;;;;;;5145636;27;20043;-86
2022/11/15 03:47:42;;;;;;;38.05;17.92;;;7.80;99.90;;;;;;5127443;27;20086;-86
2022/11/15 03:50:14;;;;;;;33.38;17.50;;;8.40;99.90;;;;;;5111362;27;20042;-86
2022/11/15 03:52:41;;;;;;;31.38;17.27;;;7.80;99.90;;;;;;5126143;27;20090;-86
2022/11/15 03:55:10;;;;;;;30.90;16.13;;;7.80;99.90;;;;;;5129066;27;20051;-86
2022/11/15 03:57:36;;;;;;;29.35;15.82;;;7.80;99.90;;;;;;5109542;27;20043;-86
2022/11/15 04:00:03;;;;;;;35.25;17.60;;;8.70;99.90;;;;;;5127738;27;20039;-86
2022/11/15 04:02:29;;;;;;;29.88;15.88;;;7.80;99.90;;;;;;5146120;27;20038;-86
2022/11/15 04:04:54;;;;;;;34.58;17.02;;;7.90;99.90;;;;;;5109055;27;20130;-86
2022/11/15 04:07:20;;;;;;;34.28;16.75;;;8.20;99.90;;;;;;5147383;27;20417;-86
2022/11/15 04:10:05;;;;;;;28.98;17.38;;;8.60;99.90;;;;;;5125856;27;20393;-86
2022/11/15 04:12:37;;;;;;;33.20;17.83;;;8.70;99.90;;;;;;5111240;27;20045;-86
2022/11/15 04:15:07;;;;;;;32.33;17.15;;;8.60;99.90;;;;;;5126709;27;20504;-85
2022/11/15 04:17:41;;;;;;;33.95;17.48;;;7.90;99.90;;;;;;5126284;27;20489;-86
2022/11/15 04:25:43;;;;;;;31.50;17.20;;;8.00;99.90;;;;;;5123547;27;20049;-85
2022/11/15 04:28:10;;;;;;;33.38;16.42;;;8.00;99.90;;;;;;5121245;27;20047;-85
2022/11/15 04:30:35;;;;;;;34.78;17.13;;;8.10;99.90;;;;;;5127679;27;20577;-86
2022/11/15 04:33:01;;;;;;;34.63;18.88;;;8.60;99.90;;;;;;5111592;27;20071;-86
2022/11/15 04:35:27;;;;;;;34.05;18.77;;;8.10;99.90;;;;;;5125491;27;20043;-86
2022/11/15 04:37:53;;;;;;;35.35;17.90;;;8.60;99.90;;;;;;5130528;27;20050;-85
2022/11/15 04:40:19;;;;;;;35.20;18.10;;;9.10;99.90;;;;;;5109493;27;20047;-86
2022/11/15 04:42:45;;;;;;;37.03;18.30;;;8.60;99.90;;;;;;5128370;27;20050;-86
2022/11/15 04:45:11;;;;;;;34.30;17.70;;;8.20;99.90;;;;;;5109702;27;20043;-85
2022/11/15 04:47:36;;;;;;;39.70;18.38;;;8.20;99.90;;;;;;5126073;27;20083;-86
2022/11/15 04:50:03;;;;;;;42.85;18.92;;;8.90;99.90;;;;;;5129411;27;20043;-86
2022/11/15 04:52:29;;;;;;;41.38;19.83;;;8.20;99.90;;;;;;5126556;27;20173;-85
2022/11/15 04:54:54;;;;;;;43.28;19.10;;;8.30;99.90;;;;;;5129490;27;20133;-86
2022/11/15 04:57:20;;;;;;;40.67;17.70;;;8.40;99.90;;;;;;5126531;27;20069;-86
2022/11/15 04:59:46;;;;;;;36.95;18.17;;;7.60;99.90;;;;;;5110026;27;20039;-86
2022/11/15 05:02:12;;;;;;;38.38;18.75;;;9.10;99.90;;;;;;5109320;27;20043;-86
2022/11/15 05:04:37;;;;;;;37.40;19.13;;;8.30;99.90;;;;;;5125867;27;20489;-85
2022/11/15 05:07:06;;;;;;;42.47;18.60;;;9.10;99.90;;;;;;5127250;27;20247;-86
2022/11/15 05:09:32;;;;;;;37.47;17.60;;;8.30;99.90;;;;;;5107909;27;20398;-85
2022/11/15 05:11:58;;;;;;;43.97;19.05;;;8.30;99.90;;;;;;5127843;27;20046;-86
2022/11/15 05:14:23;;;;;;;39.83;19.05;;;8.30;99.90;;;;;;5126310;27;20035;-85
2022/11/15 05:16:49;;;;;;;40.15;19.45;;;8.50;99.90;;;;;;5110518;27;20035;-86
2022/11/15 05:19:15;;;;;;;39.30;18.85;;;8.50;99.90;;;;;;5126556;27;20047;-85
2022/11/15 05:21:40;;;;;;;42.70;19.75;;;8.40;99.90;;;;;;5126931;27;20510;-85
2022/11/15 05:24:08;;;;;;;42.05;18.67;;;8.30;99.90;;;;;;5077564;27;20143;-85
2022/11/15 05:26:34;;;;;;;45.63;20.05;;;8.40;99.90;;;;;;5127439;27;20031;-86
2022/11/15 05:28:59;;;;;;;44.40;20.50;;;8.40;99.90;;;;;;5128777;27;20547;-85
2022/11/15 05:31:26;;;;;;;45.28;20.70;;;8.40;99.90;;;;;;5107744;27;20051;-86
2022/11/15 05:33:54;;;;;;;46.38;21.20;;;8.40;99.90;;;;;;5130127;27;20047;-86
2022/11/15 05:36:33;;;;;;;50.67;20.90;;;8.50;99.90;;;;;;5126896;27;20050;-84
2022/11/15 05:38:59;;;;;;;53.65;22.05;;;8.50;99.90;;;;;;5108466;27;20043;-84
2022/11/15 05:41:37;;;;;;;46.17;22.88;;;8.60;99.90;;;;;;5130598;27;20043;-85
2022/11/15 05:44:06;;;;;;;51.38;20.95;;;8.50;99.90;;;;;;5127098;27;20139;-85
2022/11/15 05:46:33;;;;;;;50.33;22.20;;;8.50;99.90;;;;;;5129974;27;20104;-86
2022/11/15 05:48:59;;;;;;;61.88;22.13;;;9.00;99.90;;;;;;5093589;27;20035;-85
2022/11/15 05:51:27;;;;;;;56.33;24.55;;;8.60;99.90;;;;;;5111751;27;20059;-86
2022/11/15 05:53:56;;;;;;;54.53;24.55;;;8.60;99.90;;;;;;5128463;27;20149;-86
2022/11/15 05:56:22;;;;;;;55.25;23.23;;;9.40;99.90;;;;;;5125826;27;20044;-85
2022/11/15 05:58:48;;;;;;;53.42;22.83;;;9.20;99.90;;;;;;5109289;27;20114;-88
2022/11/15 06:01:14;;;;;;;64.05;26.20;;;8.70;99.90;;;;;;5123903;27;20035;-85
2022/11/15 06:03:39;;;;;;;57.78;24.00;;;8.70;99.90;;;;;;5109635;27;20128;-89
2022/11/15 06:06:05;;;;;;;58.50;23.10;;;8.70;99.90;;;;;;5089975;27;20043;-86
2022/11/15 06:08:31;;;;;;;62.67;24.23;;;8.70;99.90;;;;;;5108978;27;20039;-82
2022/11/15 06:10:56;;;;;;;60.22;24.35;;;8.80;99.90;;;;;;5125812;27;20071;-85
2022/11/15 06:13:22;;;;;;;62.08;25.48;;;9.20;99.90;;;;;;5124879;27;20067;-85
2022/11/15 06:15:48;;;;;;;67.38;24.70;;;9.20;99.90;;;;;;5127978;27;20044;-85
2022/11/15 06:18:14;;;;;;;67.25;26.20;;;9.00;99.90;;;;;;5125090;27;20053;-86
2022/11/15 06:20:39;;;;;;;60.10;26.38;;;8.90;99.90;;;;;;5075579;27;20047;-85
2022/11/15 06:23:05;;;;;;;64.55;26.20;;;8.90;99.90;;;;;;5124212;27;20059;-85
2022/11/15 06:25:31;;;;;;;73.55;26.77;;;10.00;99.90;;;;;;5091942;27;20470;-86
2022/11/15 06:27:58;;;;;;;67.50;27.85;;;9.00;99.90;;;;;;5126172;27;20039;-87
2022/11/15 06:30:25;;;;;;;62.00;24.38;;;9.00;99.90;;;;;;5125008;27;20057;-87
2022/11/15 06:32:58;;;;;;;67.55;26.05;;;9.00;99.90;;;;;;5119810;27;20028;-90
2022/11/15 06:35:23;;;;;;;51.45;24.50;;;9.00;99.90;;;;;;5143017;27;20043;-93
2022/11/15 06:37:49;;;;;;;62.55;25.42;;;9.00;99.90;;;;;;5112271;27;20050;-89
2022/11/15 06:40:15;;;;;;;65.80;24.88;;;9.70;99.90;;;;;;5125531;27;20050;-88
2022/11/15 06:42:40;;;;;;;63.83;26.00;;;9.00;99.90;;;;;;5108976;27;20513;-89
2022/11/15 06:45:07;;;;;;;63.88;25.48;;;9.10;99.90;;;;;;5107533;27;20151;-88
2022/11/15 06:47:32;;;;;;;73.35;26.40;;;9.10;99.90;;;;;;5090549;27;20090;-87
2022/11/15 06:49:58;;;;;;;63.40;25.33;;;9.50;99.90;;;;;;5108476;27;20070;-84
2022/11/15 06:52:24;;;;;;;72.70;26.65;;;9.10;99.90;;;;;;5106001;27;20129;-87
2022/11/15 06:54:49;;;;;;;55.38;26.25;;;10.10;99.90;;;;;;5091876;27;20035;-87
2022/11/15 06:57:15;;;;;;;60.60;25.80;;;9.80;99.90;;;;;;5106299;27;20402;-87
2022/11/15 06:59:41;;;;;;;71.88;28.65;;;10.00;99.90;;;;;;5091218;27;20487;-88
2022/11/15 07:02:10;;;;;;;52.90;25.90;;;10.10;99.90;;;;;;5106905;27;20367;-87
2022/11/15 07:04:36;;;;;;;59.88;27.92;;;9.40;99.90;;;;;;5124096;27;20035;-87
2022/11/15 07:07:02;;;;;;;72.53;27.98;;;9.70;99.90;;;;;;5125249;27;20051;-88
2022/11/15 07:09:27;;;;;;;60.53;26.33;;;9.50;99.90;;;;;;5106261;27;20043;-88
2022/11/15 07:11:53;;;;;;;59.83;27.00;;;9.60;99.90;;;;;;5125995;27;20049;-87
2022/11/15 07:14:18;;;;;;;58.55;27.45;;;10.10;99.90;;;;;;5089188;27;20062;-87
2022/11/15 07:16:44;;;;;;;58.50;25.63;;;9.70;99.90;;;;;;5108801;27;20385;-87
2022/11/15 07:19:10;;;;;;;69.68;27.13;;;9.70;99.90;;;;;;5106679;27;20043;-87
2022/11/15 07:21:36;;;;;;;62.97;24.95;;;10.70;99.90;;;;;;5106986;27;20055;-86
2022/11/15 07:24:01;;;;;;;67.13;27.27;;;9.80;99.90;;;;;;5108247;28;20393;-87
2022/11/15 07:26:27;;;;;;;54.15;24.15;;;9.90;99.90;;;;;;5088871;28;20051;-87
2022/11/15 07:28:53;;;;;;;62.13;26.35;;;9.90;99.90;;;;;;5108293;28;20118;-87
2022/11/15 07:31:19;;;;;;;57.45;26.55;;;10.90;99.90;;;;;;5123088;28;20035;-88
2022/11/15 07:33:44;;;;;;;64.65;25.77;;;10.80;99.90;;;;;;5125045;28;20050;-92
2022/11/15 07:36:10;;;;;;;54.95;25.63;;;10.00;99.90;;;;;;5106629;28;20042;-83
2022/11/15 07:38:36;;;;;;;67.13;27.67;;;10.00;99.90;;;;;;5127397;28;20432;-90
2022/11/15 07:41:03;;;;;;;63.28;26.63;;;10.00;99.90;;;;;;5075927;28;20023;-89
2022/11/15 07:43:30;;;;;;;61.25;26.55;;;10.10;99.90;;;;;;5106175;28;20126;-86
2022/11/15 07:45:58;;;;;;;59.28;26.08;;;10.10;99.90;;;;;;5091103;28;20071;-87
2022/11/15 07:48:23;;;;;;;59.63;26.27;;;10.10;99.90;;;;;;5123377;28;21091;-87
2022/11/15 07:50:49;;;;;;;50.70;25.48;;;10.20;99.90;;;;;;5091218;28;20047;-87
2022/11/15 07:53:15;;;;;;;65.68;28.70;;;10.20;99.90;;;;;;5105889;28;20039;-87
2022/11/15 07:55:41;;;;;;;55.50;24.27;;;10.20;99.90;;;;;;5092655;27;20043;-88
2022/11/15 07:58:10;;;;;;;48.05;26.42;;;11.30;99.90;;;;;;5111065;27;20046;-88
2022/11/15 08:00:36;;;;;;;49.33;25.75;;;10.30;99.90;;;;;;5110313;27;20375;-88
2022/11/15 08:03:08;;;;;;;54.63;24.55;;;10.30;99.90;;;;;;5112399;27;20043;-85
2022/11/15 08:05:35;;;;;;;52.15;24.00;;;10.40;99.90;;;;;;5126621;27;20112;-87
2022/11/15 08:08:00;;;;;;;47.58;24.45;;;10.40;99.90;;;;;;5129493;27;20434;-87
2022/11/15 08:10:27;;;;;;;42.13;22.70;;;10.40;99.90;;;;;;5109748;27;20152;-86
2022/11/15 08:13:10;;;;;;;49.40;24.05;;;11.30;99.90;;;;;;5111041;27;20351;-85
2022/11/15 08:15:36;;;;;;;44.35;21.75;;;10.60;99.90;;;;;;5128296;27;20088;-88
2022/11/15 08:18:05;;;;;;;42.40;21.95;;;10.50;99.90;;;;;;5126537;27;20433;-86
2022/11/15 08:20:32;;;;;;;43.20;21.27;;;10.50;99.90;;;;;;5128638;27;20520;-89
2022/11/15 08:22:59;;;;;;;46.38;22.63;;;10.60;99.90;;;;;;5126213;27;20047;-89
2022/11/15 08:25:26;;;;;;;41.47;23.25;;;10.60;99.90;;;;;;5128445;27;20043;-85
2022/11/15 08:27:53;;;;;;;39.90;22.58;;;10.60;99.90;;;;;;5110468;27;20039;-90
2022/11/15 08:30:19;;;;;;;37.60;21.23;;;11.20;99.90;;;;;;5110059;27;20039;-88
2022/11/15 08:32:45;;;;;;;37.47;21.42;;;10.70;99.90;;;;;;5111102;27;20099;-89
2022/11/15 08:35:11;;;;;;;47.80;21.60;;;10.80;99.90;;;;;;5109562;27;20166;-89
2022/11/15 08:37:36;;;;;;;36.10;19.33;;;10.80;99.90;;;;;;5128605;27;20172;-88
2022/11/15 08:40:03;;;;;;;35.83;20.92;;;11.20;99.90;;;;;;5140088;27;20329;-89
2022/11/15 08:42:29;;;;;;;44.28;21.52;;;10.90;99.90;;;;;;5129252;27;20115;-89
2022/11/15 08:44:55;;;;;;;35.65;20.67;;;10.90;99.90;;;;;;5094348;27;20552;-89
2022/11/15 08:47:20;;;;;;;39.15;20.63;;;11.00;99.90;;;;;;5110253;27;20129;-89
2022/11/15 08:49:46;;;;;;;33.85;19.77;;;11.00;99.90;;;;;;5093617;27;20055;-89
2022/11/15 08:52:13;;;;;;;41.53;19.92;;;11.00;99.90;;;;;;5126315;27;20107;-90
2022/11/15 08:54:38;;;;;;;37.47;19.00;;;11.20;99.90;;;;;;5111963;27;20368;-88
2022/11/15 08:57:04;;;;;;;32.63;19.25;;;11.30;99.90;;;;;;5109258;27;20035;-88
2022/11/15 08:59:30;;;;;;;32.72;18.50;;;11.30;99.90;;;;;;5112088;27;20084;-88
2022/11/15 09:01:55;;;;;;;28.63;17.13;;;11.70;99.90;;;;;;5127016;27;20039;-88
2022/11/15 09:04:21;;;;;;;31.40;18.17;;;11.20;99.90;;;;;;5110786;27;20043;-88
2022/11/15 09:06:47;;;;;;;32.35;18.02;;;11.10;99.90;;;;;;5110992;27;20148;-88
2022/11/15 09:09:12;;;;;;;28.77;15.85;;;11.20;99.90;;;;;;5109949;27;20486;-88
2022/11/15 09:11:38;;;;;;;30.10;19.10;;;11.30;99.90;;;;;;5093924;27;20126;-88
2022/11/15 09:14:04;;;;;;;25.98;16.95;;;11.30;99.90;;;;;;5091854;27;20754;-88
2022/11/15 09:16:31;;;;;;;25.20;16.58;;;11.40;99.90;;;;;;5111171;27;20047;-88
2022/11/15 09:18:57;;;;;;;28.75;15.88;;;12.30;99.90;;;;;;5125267;27;20104;-89
2022/11/15 09:21:22;;;;;;;24.73;15.13;;;11.50;99.90;;;;;;5092689;27;20134;-88
2022/11/15 09:23:51;;;;;;;24.17;15.73;;;11.70;99.90;;;;;;5126880;27;20050;-89
2022/11/15 09:26:18;;;;;;;24.08;14.77;;;11.60;99.90;;;;;;5125846;27;20054;-88
2022/11/15 09:28:44;;;;;;;23.63;14.70;;;11.60;99.90;;;;;;5110220;27;20039;-88
2022/11/15 09:31:10;;;;;;;28.85;14.13;;;11.60;99.90;;;;;;5090988;27;20134;-88
2022/11/15 09:33:36;;;;;;;23.23;14.55;;;12.10;99.90;;;;;;5077022;27;20126;-89
2022/11/15 09:36:08;;;;;;;24.15;15.10;;;11.70;99.90;;;;;;5108792;27;20367;-88
2022/11/15 09:38:34;;;;;;;23.80;14.13;;;11.80;99.90;;;;;;5109651;27;20393;-89
2022/11/15 09:41:12;;;;;;;24.27;14.43;;;11.70;99.90;;;;;;5126476;27;20049;-88
2022/11/15 09:44:06;;;;;;;21.70;14.07;;;11.80;99.90;;;;;;5107528;27;20043;-89
2022/11/15 09:47:04;;;;;;;24.20;14.07;;;11.90;99.90;;;;;;5127734;27;20031;-89
2022/11/15 09:49:31;;;;;;;20.45;12.80;;;11.90;99.90;;;;;;5053951;27;20138;-88
2022/11/15 09:51:58;;;;;;;23.27;13.00;;;12.50;99.90;;;;;;5108434;27;20039;-89
2022/11/15 09:54:31;;;;;;;24.77;13.80;;;12.80;99.90;;;;;;5110189;27;20066;-88
2022/11/15 09:57:37;;;;;;;34.10;14.55;;;11.90;99.90;;;;;;5124204;27;20054;-89
2022/11/15 10:00:12;;;;;;;17.73;12.15;;;11.90;99.90;;;;;;5125801;27;20054;-88
2022/11/15 10:03:03;;;;;;;24.77;13.98;;;12.00;99.90;;;;;;5109474;27;20537;-89
2022/11/15 10:05:29;;;;;;;21.52;12.73;;;12.00;99.90;;;;;;5107141;27;20039;-88
2022/11/15 10:08:30;;;;;;;19.15;13.05;;;12.00;99.90;;;;;;5126770;27;20770;-89
2022/11/15 10:11:01;;;;;;;20.98;12.98;;;12.10;99.90;;;;;;5040119;27;20055;-89
2022/11/15 10:13:32;;;;;;;21.92;14.25;;;12.10;99.90;;;;;;5124398;27;20050;-89
2022/11/15 10:16:27;;;;;;;22.23;12.80;;;12.10;99.90;;;;;;5126470;27;20054;-89
2022/11/15 10:19:10;;;;;;;25.20;13.73;;;12.10;99.90;;;;;;5123453;27;20096;-89
2022/11/15 10:21:58;;;;;;;21.20;12.07;;;12.10;99.90;;;;;;5125020;27;20066;-89
2022/11/15 10:24:28;;;;;;;21.65;13.23;;;12.00;99.90;;;;;;5109263;27;20489;-88
2022/11/15 10:26:55;;;;;;;19.50;12.65;;;12.10;99.90;;;;;;5124140;27;20477;-89
2022/11/15 10:29:22;;;;;;;19.13;12.15;;;12.10;99.90;;;;;;5126156;27;20078;-89
2022/11/15 10:31:48;;;;;;;17.80;11.38;;;12.10;99.90;;;;;;5124052;27;20038;-88
2022/11/15 10:34:20;;;;;;;20.45;11.93;;;12.10;99.90;;;;;;5125032;27;20126;-89
2022/11/15 10:36:53;;;;;;;21.70;11.68;;;12.50;99.90;;;;;;5126771;27;20126;-89
2022/11/15 10:39:19;;;;;;;28.58;11.95;;;13.00;99.90;;;;;;5107039;27;20039;-89
2022/11/15 10:41:45;;;;;;;18.98;11.75;;;12.20;99.90;;;;;;5109777;27;20039;-89
2022/11/15 10:44:19;;;;;;;19.25;10.77;;;12.20;99.90;;;;;;5089832;27;20397;-90
2022/11/15 10:46:55;;;;;;;18.55;12.02;;;12.20;99.90;;;;;;5126223;27;20070;-90
2022/11/15 10:49:25;;;;;;;16.98;11.88;;;12.20;99.90;;;;;;5125527;27;20395;-89
2022/11/15 10:52:16;;;;;;;24.80;11.07;;;12.50;99.90;;;;;;5090395;27;20035;-88
2022/11/15 10:54:52;;;;;;;23.75;11.30;;;12.30;99.90;;;;;;5126215;27;20082;-88
2022/11/15 10:57:24;;;;;;;20.50;10.23;;;12.30;99.90;;;;;;5123676;27;20049;-89
2022/11/15 11:00:04;;;;;;;18.92;11.52;;;12.30;99.90;;;;;;5125239;27;20045;-87
2022/11/15 11:02:37;;;;;;;29.40;10.38;;;12.30;99.90;;;;;;5125201;27;20091;-88
2022/11/15 11:05:04;;;;;;;;;;;12.30;99.90;;;;;;5123769;27;20039;-87
2022/11/15 11:07:33;;;;;;;24.17;10.50;;;12.30;99.90;;;;;;5125739;27;19919;-87
2022/11/15 11:10:16;;;;;;;20.65;11.68;;;12.30;99.90;;;;;;5124028;27;20393;-87
2022/11/15 11:12:42;;;;;;;15.68;10.75;;;12.30;99.90;;;;;;5125154;27;20035;-88
2022/11/15 11:15:15;;;;;;;20.50;11.07;;;12.30;99.90;;;;;;5107642;27;20050;-88
2022/11/15 11:17:47;;;;;;;18.05;12.23;;;12.30;99.90;;;;;;5106021;28;20143;-88
2022/11/15 11:20:27;;;;;;;27.90;11.77;;;12.30;99.90;;;;;;5127689;27;20078;-87
2022/11/15 11:23:36;;;;;;;23.70;12.00;;;12.30;99.90;;;;;;5109717;27;20081;-87
2022/11/15 11:26:34;;;;;;;18.15;11.20;;;12.30;99.90;;;;;;5127362;27;20039;-87
2022/11/15 11:29:10;;;;;;;17.88;12.27;;;12.30;99.90;;;;;;5111105;27;20057;-87
2022/11/15 11:31:57;;;;;;;20.98;12.25;;;12.30;99.90;;;;;;5126409;27;20046;-86
2022/11/15 11:35:07;;;;;;;16.33;12.70;;;12.40;99.90;;;;;;5111156;27;20034;-87
2022/11/15 11:37:44;;;;;;;15.48;11.35;;;12.50;99.90;;;;;;5111865;27;20497;-87
2022/11/15 11:40:24;;;;;;;14.55;10.40;;;12.50;99.90;;;;;;5145378;27;20438;-88
2022/11/15 11:43:04;;;;;;;13.70;9.45;;;12.60;99.90;;;;;;5110275;27;20051;-87
2022/11/15 11:45:36;;;;;;;16.58;10.38;;;12.60;99.90;;;;;;5128680;27;20226;-87
2022/11/15 11:48:32;;;;;;;16.77;9.90;;;12.80;99.90;;;;;;5108693;27;20121;-87
2022/11/15 11:51:08;;;;;;;15.35;10.32;;;12.70;99.90;;;;;;5128310;27;20409;-88
2022/11/15 11:53:45;;;;;;;15.23;9.63;;;12.70;99.90;;;;;;5128415;27;20035;-88
2022/11/15 11:56:32;;;;;;;11.48;8.75;;;12.80;99.90;;;;;;5127454;27;20581;-89
2022/11/15 11:59:19;;;;;;;11.68;8.25;;;12.90;99.90;;;;;;5112381;27;20050;-86
2022/11/15 12:01:45;;;;;;;13.88;8.27;;;13.00;99.90;;;;;;5127535;27;20389;-86
2022/11/15 12:04:11;;;;;;;15.07;7.80;;;13.00;99.90;;;;;;5128665;27;20039;-86
2022/11/15 12:07:05;;;;;;;13.48;6.88;;;13.00;99.90;;;;;;5147560;27;20035;-86
2022/11/15 12:09:54;;;;;;;15.10;7.63;;;12.90;99.90;;;;;;5135783;27;20394;-86
2022/11/15 12:12:36;;;;;;;10.35;7.85;;;12.90;99.90;;;;;;5111664;27;20062;-87
2022/11/15 12:15:12;;;;;;;8.85;6.40;;;12.90;99.90;;;;;;5129407;27;20437;-86
2022/11/15 12:17:40;;;;;;;8.88;6.03;;;12.80;99.90;;;;;;5110408;27;20066;-86
2022/11/15 12:20:18;;;;;;;12.63;5.53;;;12.80;99.90;;;;;;5111297;27;20054;-86
2022/11/15 12:22:55;;;;;;;8.88;5.57;;;12.60;99.90;;;;;;5127269;27;20072;-88
2022/11/15 12:25:28;;;;;;;8.55;5.18;;;12.70;99.90;;;;;;5112621;27;20062;-87
2022/11/15 12:28:19;;;;;;;6.80;4.80;;;12.70;99.90;;;;;;5128809;27;20047;-87
2022/11/15 12:30:55;;;;;;;12.77;4.47;;;12.70;99.90;;;;;;5110454;27;20060;-88
2022/11/15 12:33:37;;;;;;;11.35;4.78;;;12.70;99.90;;;;;;5129547;27;20086;-88
2022/11/15 12:36:28;;;;;;;6.50;4.22;;;12.70;99.90;;;;;;5127629;27;20146;-88
2022/11/15 12:39:00;;;;;;;25.13;6.20;;;12.70;99.90;;;;;;5094843;27;20047;-88
2022/11/15 12:41:27;;;;;;;16.77;5.10;;;12.60;99.90;;;;;;5113811;27;20063;-89
2022/11/15 12:43:53;;;;;;;5.80;4.85;;;12.70;99.90;;;;;;5132168;27;20054;-88
2022/11/15 12:46:31;;;;;;;7.82;4.47;;;12.60;99.90;;;;;;5118054;27;20035;-89
2022/11/15 12:49:22;;;;;;;8.95;5.15;;;12.60;99.90;;;;;;5132831;27;20078;-89
2022/11/15 12:51:48;;;;;;;10.52;4.22;;;12.70;99.90;;;;;;5102805;27;20055;-89
2022/11/15 12:54:23;;;;;;;12.13;4.57;;;12.60;99.90;;;;;;5118524;27;20050;-89
2022/11/15 12:57:06;;;;;;;8.02;3.40;;;12.60;99.90;;;;;;5115247;27;20593;-89
2022/11/15 12:59:58;;;;;;;9.75;3.40;;;12.70;99.90;;;;;;5134399;27;20053;-88
2022/11/15 13:02:30;;;;;;;6.45;3.70;;;12.60;99.90;;;;;;5119712;27;20050;-88